Lewiston-Nez Perce County Airport

Airport
ICAO code: 
KLWS
Summary
ICAO Region: 
NAM
Territory: 
Location: 
Lewiston, Idaho,
Coordinates: 
Aerial View: 
46° 22' 27.008" N, 117° 0' 48.537" W
Airport CFIT: 
Altimeter Temperature Error Correction
Metar
Observation
KLWS 020756Z AUTO 16009KT 10SM BKN075 OVC095 16/06 A3003 RMK AO2 SLP167 T01560056 401780061
Station
Lewiston, Lewiston-Nez Perce County Airport
Date/Time
2021-12-02 07:56:00
Wind direction
160°
Wind speed
09 kts
Lowest cloud amount
broken clouds
Temperature
15.6°C
Dew point
5.6°C
Humidity
51%
Weather condition
n/a

Description

Lewiston – Nez Perce County Airport is a public airport serving the city of Lewiston, in Nez Perce County, Idaho.

Climatology

Cold Semi-arid climate (Köppen climate classification BSk). - Hot, sometimes extremely hot summers and cold, sometimes very cold winters. Some snowfall during the winter. Areas featuring cold semi-arid climates are sometimes subject to major temperature swings during a 24 hour period.

Runways

Designator Length Width Surface Rops
12/30 1525 30 ASPH-G Yes/Yes
8/26 1985 46 ASP Yes/Yes
Airport map: 
Aerial View: 

SKYbrary Partners:

Safety knowledge contributed by: